createdAt,value
2023-02-23T00:00:28.483Z,33.75
2023-02-23T00:03:01.844Z,35.72
2023-02-23T00:05:35.284Z,33.47
2023-02-23T00:08:02.258Z,25.95
2023-02-23T00:10:32.104Z,30.33
2023-02-23T00:12:59.829Z,29.10
2023-02-23T00:15:27.956Z,27.42
2023-02-23T00:22:07.802Z,30.10
2023-02-23T00:24:36.680Z,29.42
2023-02-23T00:27:21.017Z,31.10
2023-02-23T00:29:49.739Z,31.90
2023-02-23T00:32:20.901Z,26.02
2023-02-23T00:34:51.374Z,28.85
2023-02-23T00:37:19.227Z,30.40
2023-02-23T00:39:48.725Z,33.58
2023-02-23T00:42:16.099Z,34.53
2023-02-23T00:44:43.245Z,30.20
2023-02-23T00:47:10.422Z,30.33
2023-02-23T00:49:37.390Z,36.47
2023-02-23T00:52:05.215Z,31.95
2023-02-23T00:54:57.404Z,32.53
2023-02-23T00:57:24.455Z,30.50
2023-02-23T00:59:51.440Z,28.40
2023-02-23T01:02:18.413Z,29.02
2023-02-23T01:04:45.455Z,32.50
2023-02-23T01:07:13.146Z,29.02
2023-02-23T01:09:40.759Z,31.25
2023-02-23T01:12:08.221Z,34.38
2023-02-23T01:14:37.716Z,35.30
2023-02-23T01:17:04.775Z,37.90
2023-02-23T01:19:34.194Z,34.65
2023-02-23T01:22:03.772Z,37.13
2023-02-23T01:24:31.006Z,33.80
2023-02-23T01:26:57.977Z,39.40
2023-02-23T01:29:24.944Z,33.42
2023-02-23T01:31:52.074Z,37.92
2023-02-23T01:34:21.777Z,37.72
2023-02-23T01:39:18.988Z,35.78
2023-02-23T01:41:46.300Z,40.83
2023-02-23T01:44:15.106Z,33.13
2023-02-23T01:46:45.458Z,46.13
2023-02-23T01:49:20.474Z,42.72
2023-02-23T01:51:52.416Z,37.83
2023-02-23T01:54:24.680Z,37.80
2023-02-23T01:56:58.471Z,43.28
2023-02-23T01:59:34.297Z,45.85
2023-02-23T02:02:01.748Z,40.63
2023-02-23T02:04:33.669Z,41.55
2023-02-23T02:07:03.845Z,44.88
2023-02-23T02:09:37.929Z,38.92
2023-02-23T02:12:08.544Z,43.10
2023-02-23T02:14:36.313Z,41.92
2023-02-23T02:17:05.965Z,41.58
2023-02-23T02:22:50.416Z,36.85
2023-02-23T02:25:45.215Z,39.45
2023-02-23T02:28:27.216Z,40.80
2023-02-23T02:31:03.334Z,41.80
2023-02-23T02:33:37.988Z,36.10
2023-02-23T02:36:34.339Z,36.17
2023-02-23T02:39:24.091Z,38.92
2023-02-23T02:44:42.267Z,42.90
2023-02-23T02:47:16.445Z,46.80
2023-02-23T02:50:09.589Z,49.17
2023-02-23T02:52:55.869Z,46.78
2023-02-23T02:55:27.852Z,44.10
2023-02-23T02:57:59.120Z,46.60
2023-02-23T03:00:56.278Z,43.10
2023-02-23T03:03:57.769Z,37.72
2023-02-23T03:06:57.592Z,42.00
2023-02-23T03:09:57.563Z,36.85
2023-02-23T03:13:05.581Z,38.92
2023-02-23T03:16:32.309Z,44.15
2023-02-23T03:19:20.681Z,39.10
2023-02-23T03:22:16.420Z,42.30
2023-02-23T03:25:30.458Z,37.22
2023-02-23T03:28:17.231Z,42.85
2023-02-23T03:31:08.601Z,37.42
2023-02-23T03:34:04.552Z,40.38
2023-02-23T03:36:55.129Z,42.67
2023-02-23T03:40:15.906Z,44.92
2023-02-23T03:43:03.928Z,44.05
2023-02-23T03:45:49.886Z,41.10
2023-02-23T03:48:40.221Z,42.17
2023-02-23T03:51:28.015Z,43.92
2023-02-23T03:54:28.413Z,44.85
2023-02-23T03:57:18.015Z,39.92
2023-02-23T04:00:08.479Z,41.85
2023-02-23T04:03:00.956Z,37.53
2023-02-23T04:05:48.233Z,39.90
2023-02-23T04:08:37.690Z,44.20
2023-02-23T04:11:37.500Z,45.60
2023-02-23T04:16:32.817Z,39.03
2023-02-23T04:18:59.913Z,43.78
2023-02-23T04:21:26.875Z,45.67
2023-02-23T04:23:53.804Z,45.22
2023-02-23T04:26:20.763Z,44.97
2023-02-23T04:28:47.689Z,48.65
2023-02-23T04:31:14.716Z,46.53
2023-02-23T04:33:41.670Z,40.90
2023-02-23T04:36:08.758Z,45.53
2023-02-23T04:38:35.720Z,44.92
2023-02-23T04:41:02.664Z,44.95
2023-02-23T04:43:29.645Z,43.15
2023-02-23T04:45:56.681Z,46.22
2023-02-23T04:48:25.211Z,46.67
2023-02-23T04:50:53.680Z,42.00
2023-02-23T04:53:20.735Z,42.53
2023-02-23T04:55:47.749Z,45.00
2023-02-23T04:58:14.706Z,41.63
2023-02-23T05:00:42.101Z,41.58
2023-02-23T05:03:09.734Z,39.42
2023-02-23T05:05:37.064Z,43.30
2023-02-23T05:08:04.084Z,41.35
2023-02-23T05:10:31.037Z,42.15
2023-02-23T05:12:58.291Z,38.80
2023-02-23T05:15:25.245Z,38.08
2023-02-23T05:17:52.198Z,43.65
2023-02-23T05:20:19.176Z,45.60
2023-02-23T05:22:46.232Z,39.00
2023-02-23T05:25:13.264Z,39.70
2023-02-23T05:27:40.717Z,42.10
2023-02-23T05:30:09.966Z,41.50
2023-02-23T05:32:37.167Z,43.88
2023-02-23T05:35:04.539Z,45.35
2023-02-23T05:37:31.539Z,47.35
2023-02-23T05:39:58.461Z,45.42
2023-02-23T05:42:25.556Z,47.40
2023-02-23T05:44:52.499Z,48.60
2023-02-23T05:47:19.460Z,44.92
2023-02-23T05:49:46.555Z,45.55
2023-02-23T05:52:13.657Z,51.15
2023-02-23T05:54:40.639Z,50.22
2023-02-23T05:57:08.398Z,45.75
2023-02-23T05:59:35.545Z,46.15
2023-02-23T06:02:04.875Z,47.35
2023-02-23T06:04:48.205Z,48.75
2023-02-23T06:07:15.979Z,43.90
2023-02-23T06:09:44.494Z,45.65
2023-02-23T06:12:11.662Z,42.50
2023-02-23T06:14:38.702Z,47.13
2023-02-23T06:17:05.833Z,43.63
2023-02-23T06:19:32.960Z,40.92
2023-02-23T06:22:00.128Z,44.58
2023-02-23T06:24:27.131Z,42.42
2023-02-23T06:26:54.241Z,49.50
2023-02-23T06:29:21.190Z,51.78
2023-02-23T06:31:48.385Z,44.38
2023-02-23T06:34:15.410Z,49.80
2023-02-23T06:36:43.140Z,47.67
2023-02-23T06:39:11.631Z,45.80
2023-02-23T06:41:38.638Z,45.88
2023-02-23T06:44:05.762Z,44.63
2023-02-23T06:46:33.807Z,47.10
2023-02-23T06:49:00.865Z,50.78
2023-02-23T06:51:27.870Z,47.65
2023-02-23T06:53:54.789Z,46.17
2023-02-23T06:56:22.079Z,50.80
2023-02-23T06:58:49.259Z,45.03
2023-02-23T07:01:17.135Z,49.42
2023-02-23T07:03:44.341Z,44.45
2023-02-23T07:06:11.314Z,49.90
2023-02-23T07:08:38.865Z,49.03
2023-02-23T07:12:04.359Z,43.42
2023-02-23T07:14:31.345Z,45.60
2023-02-23T07:16:58.408Z,53.13
2023-02-23T07:19:25.729Z,48.97
2023-02-23T07:21:53.134Z,47.97
2023-02-23T07:24:20.121Z,49.22
2023-02-23T07:26:49.377Z,49.85
2023-02-23T07:29:16.580Z,42.25
2023-02-23T07:31:43.763Z,44.72
2023-02-23T07:34:10.815Z,42.63
2023-02-23T07:36:38.198Z,42.53
2023-02-23T07:39:05.621Z,46.85
2023-02-23T07:41:32.857Z,41.78
2023-02-23T07:44:00.546Z,43.33
2023-02-23T07:46:27.487Z,43.50
2023-02-23T07:48:54.407Z,41.15
2023-02-23T07:51:21.672Z,41.22
2023-02-23T07:53:49.688Z,43.92
2023-02-23T07:56:16.690Z,41.55
2023-02-23T07:58:44.576Z,34.90
2023-02-23T08:01:12.897Z,38.08
2023-02-23T08:03:40.034Z,34.70
2023-02-23T08:06:07.569Z,38.33
2023-02-23T08:08:35.566Z,36.00
2023-02-23T08:11:05.049Z,37.78
2023-02-23T08:13:32.704Z,33.97
2023-02-23T08:15:59.889Z,34.40
2023-02-23T08:18:27.872Z,33.80
2023-02-23T08:21:02.213Z,39.60
2023-02-23T08:23:34.146Z,34.95
2023-02-23T08:26:02.333Z,34.47
2023-02-23T08:28:30.543Z,36.13
2023-02-23T08:30:59.349Z,34.03
2023-02-23T08:33:26.765Z,37.87
2023-02-23T08:35:53.925Z,37.60
2023-02-23T08:38:21.145Z,34.78
2023-02-23T08:40:48.111Z,38.63
2023-02-23T08:43:16.314Z,31.25
2023-02-23T08:45:43.343Z,35.05
2023-02-23T08:48:10.330Z,37.60
2023-02-23T08:50:37.289Z,34.85
2023-02-23T08:56:55.384Z,32.53
2023-02-23T08:59:22.460Z,39.88
2023-02-23T09:01:49.490Z,32.03
2023-02-23T09:04:16.927Z,35.70
2023-02-23T09:06:44.613Z,30.25
2023-02-23T09:09:11.498Z,34.22
2023-02-23T09:11:38.484Z,35.83
2023-02-23T09:15:12.295Z,27.88
2023-02-23T09:17:39.606Z,28.40
2023-02-23T09:20:07.338Z,31.00
2023-02-23T09:22:36.882Z,31.58
2023-02-23T09:25:05.057Z,27.98
2023-02-23T09:27:32.391Z,26.98
2023-02-23T09:29:59.368Z,26.95
2023-02-23T09:32:26.399Z,29.40
2023-02-23T09:34:53.511Z,28.50
2023-02-23T09:37:20.477Z,30.20
2023-02-23T09:39:48.901Z,27.88
2023-02-23T09:42:49.152Z,28.50
2023-02-23T09:45:36.779Z,28.25
2023-02-23T09:48:12.491Z,25.15
2023-02-23T09:50:42.187Z,28.55
2023-02-23T09:53:28.401Z,31.23
2023-02-23T09:55:58.392Z,26.52
2023-02-23T09:58:34.018Z,26.85
2023-02-23T10:01:18.253Z,27.05
2023-02-23T10:04:07.135Z,22.45
2023-02-23T10:06:34.885Z,25.70
2023-02-23T10:09:41.073Z,21.90
2023-02-23T10:12:11.915Z,24.08
2023-02-23T10:15:41.490Z,21.00
2023-02-23T10:18:46.419Z,23.08
2023-02-23T10:21:19.628Z,19.92
2023-02-23T10:23:53.719Z,22.20
2023-02-23T10:26:25.158Z,23.42
2023-02-23T10:29:33.385Z,22.95
2023-02-23T10:32:06.331Z,20.65
2023-02-23T10:34:33.927Z,18.05
2023-02-23T10:37:02.306Z,15.18
2023-02-23T10:39:31.087Z,13.95
2023-02-23T10:42:02.780Z,14.38
2023-02-23T10:44:29.965Z,12.63
2023-02-23T10:47:09.420Z,13.50
2023-02-23T10:49:45.597Z,16.25
2023-02-23T10:52:15.833Z,20.08
2023-02-23T10:54:48.900Z,18.38
2023-02-23T10:57:40.193Z,16.17
2023-02-23T11:00:17.046Z,18.58
2023-02-23T11:02:45.149Z,17.17
2023-02-23T11:05:35.162Z,17.40
2023-02-23T11:08:12.383Z,16.88
2023-02-23T11:10:39.690Z,18.58
2023-02-23T11:13:06.689Z,15.13
2023-02-23T11:15:50.607Z,17.05
2023-02-23T11:18:24.936Z,18.77
2023-02-23T11:20:52.798Z,18.75
2023-02-23T11:23:24.453Z,13.38
2023-02-23T11:25:57.073Z,15.52
2023-02-23T11:28:34.928Z,19.08
2023-02-23T11:31:08.865Z,15.93
2023-02-23T11:33:38.880Z,17.20
2023-02-23T11:36:20.654Z,15.70
2023-02-23T11:38:47.976Z,19.63
2023-02-23T11:41:24.256Z,15.00
2023-02-23T11:43:56.710Z,14.32
2023-02-23T11:46:25.887Z,13.85
2023-02-23T11:49:07.849Z,12.23
2023-02-23T11:51:38.362Z,15.05
2023-02-23T11:54:07.070Z,27.90
2023-02-23T11:56:35.633Z,12.10
2023-02-23T11:59:07.447Z,14.75
2023-02-23T12:01:41.864Z,13.10
2023-02-23T12:04:10.513Z,10.52
2023-02-23T12:06:41.431Z,9.57
2023-02-23T12:09:31.446Z,10.35
2023-02-23T12:12:21.907Z,8.25
2023-02-23T12:14:55.852Z,9.65
2023-02-23T12:17:37.051Z,12.48
2023-02-23T12:20:15.972Z,11.68
2023-02-23T12:22:57.966Z,11.63
2023-02-23T12:25:36.341Z,10.38
2023-02-23T12:28:18.509Z,11.07
2023-02-23T12:31:15.283Z,11.73
2023-02-23T12:33:46.401Z,11.43
2023-02-23T12:36:38.570Z,11.07
2023-02-23T12:39:21.473Z,9.27
2023-02-23T12:42:11.405Z,9.77
2023-02-23T12:45:11.493Z,8.48
2023-02-23T12:48:11.905Z,9.60
2023-02-23T12:50:40.780Z,12.63
2023-02-23T12:53:39.616Z,12.98
2023-02-23T12:56:33.461Z,5.77
2023-02-23T12:59:13.479Z,12.40
2023-02-23T13:02:04.747Z,9.00
2023-02-23T13:05:05.175Z,9.27
2023-02-23T13:07:34.876Z,10.48
2023-02-23T13:10:39.459Z,6.80
2023-02-23T13:13:18.454Z,7.93
2023-02-23T13:16:04.566Z,8.87
2023-02-23T13:19:08.956Z,10.10
2023-02-23T13:21:44.677Z,10.57
2023-02-23T13:24:19.288Z,12.85
2023-02-23T13:27:07.457Z,7.78
2023-02-23T13:29:36.849Z,8.30
2023-02-23T13:32:11.002Z,10.50
2023-02-23T13:35:03.248Z,10.48
2023-02-23T13:38:15.155Z,8.05
2023-02-23T13:41:14.359Z,8.98
2023-02-23T13:44:01.488Z,10.20
2023-02-23T13:46:57.955Z,11.57
2023-02-23T13:49:37.782Z,12.85
2023-02-23T13:52:42.045Z,13.05
2023-02-23T13:55:29.411Z,15.02
2023-02-23T13:58:25.844Z,9.65
2023-02-23T14:01:27.631Z,11.65
2023-02-23T14:03:57.897Z,11.30
2023-02-23T14:06:27.730Z,11.73
2023-02-23T14:11:43.404Z,11.50
2023-02-23T14:14:37.190Z,9.38
2023-02-23T14:17:16.294Z,11.57
2023-02-23T14:20:06.831Z,9.68
2023-02-23T14:22:35.061Z,12.45
2023-02-23T14:25:33.265Z,7.32
2023-02-23T14:28:02.039Z,9.50
2023-02-23T14:30:43.318Z,8.98
2023-02-23T14:33:42.203Z,7.97
2023-02-23T14:36:24.414Z,7.60
2023-02-23T14:39:00.400Z,10.98
2023-02-23T14:41:50.204Z,7.28
2023-02-23T14:44:31.584Z,6.90
2023-02-23T14:47:15.753Z,8.13
2023-02-23T14:49:46.497Z,6.25
2023-02-23T14:52:28.333Z,9.23
2023-02-23T14:55:13.174Z,7.63
2023-02-23T14:57:41.916Z,8.70
2023-02-23T15:00:16.251Z,9.45
2023-02-23T15:03:05.229Z,6.13
2023-02-23T15:05:59.653Z,11.83
2023-02-23T15:08:29.929Z,9.13
2023-02-23T15:11:04.108Z,8.98
2023-02-23T15:16:07.695Z,11.95
2023-02-23T15:19:30.597Z,9.13
2023-02-23T15:21:59.546Z,12.07
2023-02-23T15:24:48.803Z,11.50
2023-02-23T15:27:25.849Z,13.63
2023-02-23T15:29:55.759Z,14.82
2023-02-23T15:32:25.574Z,14.80
2023-02-23T15:34:53.624Z,17.67
2023-02-23T15:37:34.065Z,15.93
2023-02-23T15:40:06.044Z,15.13
2023-02-23T15:42:41.438Z,15.27
2023-02-23T15:45:20.923Z,18.48
2023-02-23T15:47:48.702Z,16.80
2023-02-23T15:50:36.355Z,23.83
2023-02-23T15:53:13.761Z,15.10
2023-02-23T15:56:43.688Z,13.88
2023-02-23T16:01:46.534Z,15.63
2023-02-23T16:04:13.488Z,13.82
2023-02-23T16:06:47.347Z,15.95
2023-02-23T16:09:26.269Z,19.88
2023-02-23T16:12:03.543Z,16.10
2023-02-23T16:14:42.602Z,12.75
2023-02-23T16:17:46.107Z,14.15
2023-02-23T16:20:41.528Z,13.63
2023-02-23T16:23:33.249Z,13.82
2023-02-23T16:26:11.969Z,14.15
2023-02-23T16:28:45.371Z,12.95
2023-02-23T16:31:14.144Z,14.90
2023-02-23T16:33:52.092Z,12.25
2023-02-23T16:36:22.638Z,12.00
2023-02-23T16:38:59.778Z,15.57
2023-02-23T16:41:32.082Z,13.05
2023-02-23T16:44:07.176Z,11.50
2023-02-23T16:46:54.226Z,11.80
2023-02-23T16:49:23.399Z,11.88
2023-02-23T16:51:51.551Z,18.73
2023-02-23T16:54:18.666Z,11.85
2023-02-23T16:56:47.356Z,11.63
2023-02-23T16:59:17.526Z,12.52
2023-02-23T17:01:50.058Z,13.48
2023-02-23T17:04:18.901Z,14.52
2023-02-23T17:06:48.470Z,16.98
2023-02-23T17:09:15.411Z,14.15
2023-02-23T17:11:47.290Z,11.77
2023-02-23T17:14:32.583Z,16.33
2023-02-23T17:17:02.269Z,12.88
2023-02-23T17:19:29.357Z,12.23
2023-02-23T17:21:56.342Z,15.07
2023-02-23T17:24:26.108Z,11.80
2023-02-23T17:29:20.319Z,9.80
2023-02-23T17:31:47.485Z,12.93
2023-02-23T17:34:14.585Z,12.80
2023-02-23T17:36:41.542Z,10.60
2023-02-23T17:39:09.990Z,11.48
2023-02-23T17:41:37.050Z,12.38
2023-02-23T17:44:05.902Z,10.88
2023-02-23T17:46:33.075Z,15.10
2023-02-23T17:49:00.063Z,12.90
2023-02-23T17:51:27.134Z,12.77
2023-02-23T17:53:54.158Z,14.80
2023-02-23T17:56:21.227Z,14.35
2023-02-23T17:58:48.295Z,12.77
2023-02-23T18:01:16.120Z,13.70
2023-02-23T18:03:43.534Z,10.52
2023-02-23T18:06:13.131Z,15.45
2023-02-23T18:08:42.436Z,12.13
2023-02-23T18:11:10.227Z,11.48
2023-02-23T18:13:37.614Z,14.05
2023-02-23T18:16:10.699Z,12.63
2023-02-23T18:18:44.702Z,15.27
2023-02-23T18:21:14.478Z,13.65
2023-02-23T18:26:14.617Z,14.00
2023-02-23T18:28:44.546Z,12.48
2023-02-23T18:31:38.083Z,14.20
2023-02-23T18:34:05.244Z,14.52
2023-02-23T18:36:38.303Z,11.60
2023-02-23T18:39:07.518Z,17.88
2023-02-23T18:41:34.993Z,14.50
2023-02-23T18:44:04.767Z,15.60
2023-02-23T18:48:59.208Z,17.35
2023-02-23T18:51:26.366Z,12.45
2023-02-23T18:53:54.035Z,20.10
2023-02-23T18:56:25.168Z,15.70
2023-02-23T18:58:54.390Z,18.05
2023-02-23T19:01:27.119Z,15.90
2023-02-23T19:03:55.208Z,15.90
2023-02-23T19:06:23.844Z,14.50
2023-02-23T19:08:56.546Z,16.55
2023-02-23T19:11:30.857Z,19.08
2023-02-23T19:14:01.220Z,20.05
2023-02-23T19:16:31.323Z,21.38
2023-02-23T19:18:59.803Z,25.17
2023-02-23T19:21:27.784Z,26.88
2023-02-23T19:23:57.815Z,29.67
2023-02-23T19:26:26.221Z,28.13
2023-02-23T19:28:53.228Z,26.17
2023-02-23T19:31:22.859Z,28.63
2023-02-23T19:33:50.425Z,30.08
2023-02-23T19:36:20.302Z,31.55
2023-02-23T19:41:19.727Z,29.83
2023-02-23T19:43:47.286Z,28.40
2023-02-23T19:46:17.355Z,26.50
2023-02-23T19:48:48.692Z,22.25
2023-02-23T19:51:15.731Z,22.05
2023-02-23T19:53:42.699Z,21.90
2023-02-23T19:56:13.798Z,25.52
2023-02-23T19:58:44.841Z,22.75
2023-02-23T20:01:16.869Z,20.85
2023-02-23T20:03:45.461Z,21.48
2023-02-23T20:06:13.903Z,24.45
2023-02-23T20:08:43.272Z,22.13
2023-02-23T20:11:10.853Z,25.17
2023-02-23T20:13:40.651Z,21.23
2023-02-23T20:18:42.461Z,21.42
2023-02-23T20:21:12.958Z,26.85
2023-02-23T20:23:41.476Z,29.80
2023-02-23T20:26:12.426Z,26.80
2023-02-23T20:28:40.203Z,22.88
2023-02-23T20:31:26.623Z,25.48
2023-02-23T20:33:56.364Z,26.88
2023-02-23T20:36:24.845Z,26.45
2023-02-23T20:38:52.187Z,24.10
2023-02-23T20:41:20.500Z,26.25
2023-02-23T20:43:47.766Z,26.88
2023-02-23T20:46:17.093Z,28.45
2023-02-23T20:48:44.281Z,26.13
2023-02-23T20:51:14.991Z,25.15
2023-02-23T20:53:46.705Z,21.27
2023-02-23T20:56:16.875Z,26.70
2023-02-23T20:58:44.697Z,25.80
2023-02-23T21:01:21.335Z,26.73
2023-02-23T21:03:53.710Z,25.30
2023-02-23T21:06:23.312Z,25.95
2023-02-23T21:08:51.212Z,24.15
2023-02-23T21:11:22.140Z,28.23
2023-02-23T21:13:49.292Z,24.58
2023-02-23T21:16:18.019Z,22.13
2023-02-23T21:18:45.613Z,25.13
2023-02-23T21:21:15.744Z,23.80
2023-02-23T21:23:45.550Z,26.05
2023-02-23T21:28:44.643Z,23.98
2023-02-23T21:31:13.275Z,27.20
2023-02-23T21:33:41.934Z,26.05
2023-02-23T21:36:10.617Z,27.52
2023-02-23T21:38:43.323Z,27.02
2023-02-23T21:41:12.409Z,26.67
2023-02-23T21:43:42.904Z,27.85
2023-02-23T21:46:12.934Z,28.05
2023-02-23T21:48:40.445Z,26.75
2023-02-23T21:51:11.617Z,24.60
2023-02-23T21:53:39.124Z,28.00
2023-02-23T21:56:22.547Z,29.98
2023-02-23T21:58:55.312Z,28.98
2023-02-23T22:01:28.659Z,28.88
2023-02-23T22:03:56.545Z,27.13
2023-02-23T22:06:25.921Z,28.08
2023-02-23T22:08:53.633Z,28.52
2023-02-23T22:11:24.920Z,30.60
2023-02-23T22:13:58.880Z,26.70
2023-02-23T22:16:32.300Z,25.20
2023-02-23T22:19:03.738Z,25.98
2023-02-23T22:21:35.049Z,24.80
2023-02-23T22:24:05.489Z,24.13
2023-02-23T22:26:39.036Z,22.67
2023-02-23T22:29:06.939Z,27.50
2023-02-23T22:31:34.231Z,20.98
2023-02-23T22:34:01.408Z,28.75
2023-02-23T22:36:32.651Z,21.40
2023-02-23T22:39:00.838Z,24.95
2023-02-23T22:41:29.691Z,25.98
2023-02-23T22:43:57.803Z,26.73
2023-02-23T22:46:26.072Z,27.33
2023-02-23T22:48:53.105Z,25.80
2023-02-23T22:51:20.870Z,29.85
2023-02-23T22:53:48.159Z,28.45
2023-02-23T22:56:15.157Z,28.05
2023-02-23T22:58:43.071Z,25.65
2023-02-23T23:01:12.351Z,25.80
2023-02-23T23:03:47.764Z,26.35
2023-02-23T23:06:23.078Z,27.02
2023-02-23T23:08:52.472Z,27.92
2023-02-23T23:11:22.589Z,25.65
2023-02-23T23:13:52.005Z,27.25
2023-02-23T23:16:48.587Z,28.48
2023-02-23T23:20:11.929Z,26.95
2023-02-23T23:23:35.430Z,23.98
2023-02-23T23:26:02.385Z,23.85
2023-02-23T23:28:29.316Z,27.33
2023-02-23T23:30:56.312Z,21.25
2023-02-23T23:33:27.041Z,24.17
2023-02-23T23:35:53.997Z,34.20
2023-02-23T23:38:21.279Z,58.65
2023-02-23T23:40:48.187Z,27.52
2023-02-23T23:43:15.234Z,24.80
2023-02-23T23:45:44.040Z,24.83
2023-02-23T23:49:20.648Z,24.20
2023-02-23T23:51:50.554Z,20.63
2023-02-23T23:54:21.662Z,20.58
2023-02-23T23:56:49.750Z,23.23
2023-02-23T23:59:21.414Z,19.10
